Time;durP1;ratioP1;P1;durP2;ratioP2;P2;SDS_P1;SDS_P2;PMS_P1;PMS_P2;Temp;Humidity;BMP_temperature;BMP_pressure;BME280_temperature;BME280_humidity;BME280_pressure;Samples;Min_cycle;Max_cycle;Signal;HPM_P1;HPM_P2
2022/08/20 00:01:49;;;;;;;2.80;1.17;;;17.50;99.90;;;;;;5049714;28;20458;-50
2022/08/20 00:04:16;;;;;;;1.90;1.47;;;17.40;99.90;;;;;;5049726;28;20446;-49
2022/08/20 00:06:44;;;;;;;3.63;1.23;;;17.50;99.90;;;;;;5049395;28;20452;-50
2022/08/20 00:09:12;;;;;;;3.27;1.37;;;17.60;99.90;;;;;;5049348;28;20760;-48
2022/08/20 00:11:39;;;;;;;1.70;1.30;;;17.40;99.90;;;;;;5049129;28;20473;-49
2022/08/20 00:14:07;;;;;;;1.53;1.30;;;17.30;99.90;;;;;;5049761;28;20502;-49
2022/08/20 00:16:36;;;;;;;2.05;1.05;;;17.10;99.90;;;;;;5049630;28;20445;-51
2022/08/20 00:19:06;;;;;;;3.40;1.40;;;17.10;99.90;;;;;;5049694;28;20209;-48
2022/08/20 00:21:35;;;;;;;1.65;0.93;;;17.00;99.90;;;;;;5052857;28;20932;-48
2022/08/20 00:24:02;;;;;;;2.60;1.20;;;17.00;99.90;;;;;;5053378;28;20660;-49
2022/08/20 00:26:31;;;;;;;1.60;1.20;;;17.00;99.90;;;;;;5052900;28;20449;-49
2022/08/20 00:28:58;;;;;;;2.40;1.30;;;17.20;99.90;;;;;;5053112;28;20463;-49
2022/08/20 00:31:25;;;;;;;2.47;1.40;;;17.20;99.90;;;;;;5053259;28;20484;-52
2022/08/20 00:33:53;;;;;;;3.43;1.40;;;17.20;99.90;;;;;;5053161;28;20441;-50
2022/08/20 00:36:20;;;;;;;3.53;1.17;;;17.10;99.90;;;;;;5053367;28;20451;-49
2022/08/20 00:38:48;;;;;;;2.30;1.13;;;17.20;99.90;;;;;;5053144;28;20445;-49
2022/08/20 00:41:18;;;;;;;1.47;1.10;;;17.40;99.90;;;;;;5053054;28;20481;-49
2022/08/20 00:43:49;;;;;;;3.40;1.00;;;17.50;99.90;;;;;;5053170;28;20441;-49
2022/08/20 00:46:20;;;;;;;1.73;1.20;;;17.50;99.90;;;;;;5053197;28;20437;-48
2022/08/20 00:48:50;;;;;;;2.87;1.10;;;17.40;99.90;;;;;;5052772;28;20448;-49
2022/08/20 00:51:26;;;;;;;3.67;1.27;;;17.50;99.90;;;;;;5053035;28;20461;-50
2022/08/20 00:53:56;;;;;;;3.53;1.10;;;17.40;99.90;;;;;;5053525;28;20445;-48
2022/08/20 00:56:24;;;;;;;1.87;1.23;;;17.30;99.90;;;;;;5052891;28;20988;-48
2022/08/20 00:58:54;;;;;;;2.47;1.07;;;17.10;99.90;;;;;;5053012;28;20444;-49
2022/08/20 01:01:22;;;;;;;3.43;1.43;;;16.90;99.90;;;;;;5052779;28;20488;-49
2022/08/20 01:03:53;;;;;;;1.50;1.10;;;17.00;99.90;;;;;;5052918;28;20539;-49
2022/08/20 01:06:20;;;;;;;2.90;1.27;;;17.30;99.90;;;;;;5052447;28;20449;-49
2022/08/20 01:08:47;;;;;;;1.60;1.20;;;17.20;99.90;;;;;;5052532;28;20450;-51
2022/08/20 01:11:15;;;;;;;2.90;1.37;;;17.40;99.90;;;;;;5052375;28;20481;-48
2022/08/20 01:13:44;;;;;;;2.00;1.60;;;17.40;99.90;;;;;;5052877;28;20507;-50
2022/08/20 01:16:19;;;;;;;2.07;1.23;;;17.40;99.90;;;;;;5052710;28;20518;-49
2022/08/20 01:18:47;;;;;;;2.50;1.23;;;17.40;99.90;;;;;;5052413;28;20440;-48
2022/08/20 01:21:16;;;;;;;2.37;1.50;;;17.00;99.90;;;;;;5052017;28;20520;-49
2022/08/20 01:23:50;;;;;;;1.93;1.50;;;16.90;99.90;;;;;;5052661;28;20527;-48
2022/08/20 01:26:22;;;;;;;4.27;1.20;;;17.10;99.90;;;;;;5052039;28;20492;-48
2022/08/20 01:28:53;;;;;;;2.28;1.35;;;17.20;99.90;;;;;;5052042;28;20454;-49
2022/08/20 01:31:25;;;;;;;1.63;1.13;;;17.00;99.90;;;;;;5051696;28;20215;-48
2022/08/20 01:33:54;;;;;;;2.17;1.33;;;17.20;99.90;;;;;;5052121;28;20449;-49
2022/08/20 01:36:24;;;;;;;2.10;1.30;;;17.40;99.90;;;;;;5052398;28;20507;-49
2022/08/20 01:38:51;;;;;;;1.90;1.37;;;17.20;99.90;;;;;;5052096;28;20507;-50
2022/08/20 01:41:49;;;;;;;3.27;1.23;;;17.00;99.90;;;;;;5051770;28;20492;-50
2022/08/20 01:44:16;;;;;;;2.10;1.20;;;17.10;99.90;;;;;;5052434;28;20450;-48
2022/08/20 01:46:45;;;;;;;1.87;1.43;;;17.00;99.90;;;;;;5051929;28;20449;-49
2022/08/20 01:49:15;;;;;;;1.83;1.03;;;17.20;99.90;;;;;;5051688;28;20445;-49
2022/08/20 01:51:42;;;;;;;2.40;1.30;;;17.10;99.90;;;;;;5051692;28;20453;-50
2022/08/20 01:54:10;;;;;;;1.60;1.20;;;17.30;99.90;;;;;;5051807;28;20449;-49
2022/08/20 01:56:53;;;;;;;2.10;1.20;;;17.40;99.90;;;;;;5051819;28;20449;-48
2022/08/20 01:59:20;;;;;;;1.60;1.10;;;17.20;99.90;;;;;;5051499;28;20495;-49
2022/08/20 02:01:47;;;;;;;2.17;0.97;;;17.50;99.90;;;;;;5051512;28;20986;-48
2022/08/20 02:04:16;;;;;;;1.37;0.93;;;17.40;99.90;;;;;;5051696;28;20445;-49
2022/08/20 02:06:46;;;;;;;2.17;1.27;;;17.20;99.90;;;;;;5051414;28;20484;-49
2022/08/20 02:09:13;;;;;;;3.57;1.07;;;17.10;99.90;;;;;;5051332;28;20863;-49
2022/08/20 02:11:41;;;;;;;1.90;1.30;;;17.20;99.90;;;;;;5051294;28;20842;-48
2022/08/20 02:14:10;;;;;;;2.00;1.20;;;17.30;99.90;;;;;;5051624;28;20445;-49
2022/08/20 02:16:42;;;;;;;1.93;0.90;;;17.00;99.90;;;;;;5051715;28;20206;-51
2022/08/20 02:19:12;;;;;;;2.60;1.20;;;16.70;99.90;;;;;;5051144;28;20934;-49
2022/08/20 02:21:44;;;;;;;2.30;1.00;;;16.70;99.90;;;;;;5050843;28;20490;-52
2022/08/20 02:24:12;;;;;;;4.38;1.48;;;16.90;99.90;;;;;;5051197;28;20792;-49
2022/08/20 02:26:41;;;;;;;2.13;1.73;;;17.10;99.90;;;;;;5050998;28;20219;-48
2022/08/20 02:29:10;;;;;;;1.95;1.42;;;17.10;99.90;;;;;;5050798;28;20449;-52
2022/08/20 02:31:38;;;;;;;1.97;1.57;;;17.10;99.90;;;;;;5050975;28;20219;-49
2022/08/20 02:34:08;;;;;;;1.90;1.33;;;16.80;99.90;;;;;;5051453;28;20445;-49
2022/08/20 02:36:36;;;;;;;3.00;1.57;;;16.40;99.90;;;;;;5051185;28;20471;-48
2022/08/20 02:39:05;;;;;;;1.63;1.17;;;16.20;99.90;;;;;;5050819;28;20499;-48
2022/08/20 02:41:32;;;;;;;2.43;1.53;;;16.20;99.90;;;;;;5050206;28;20524;-48
2022/08/20 02:44:01;;;;;;;3.40;1.60;;;16.30;99.90;;;;;;5050478;28;20445;-49
2022/08/20 02:46:28;;;;;;;2.00;1.40;;;16.30;99.90;;;;;;5050664;28;20445;-50
2022/08/20 02:48:55;;;;;;;2.10;1.80;;;16.50;99.90;;;;;;5050575;28;20441;-49
2022/08/20 02:51:22;;;;;;;2.33;1.50;;;16.60;99.90;;;;;;5050590;28;20519;-49
2022/08/20 02:53:49;;;;;;;3.73;1.27;;;16.80;99.90;;;;;;5050721;28;20449;-49
2022/08/20 02:56:17;;;;;;;2.50;1.48;;;16.90;99.90;;;;;;5050918;28;20861;-49
2022/08/20 02:58:45;;;;;;;2.90;1.50;;;17.00;99.90;;;;;;5050469;28;20221;-51
2022/08/20 03:01:17;;;;;;;1.77;1.37;;;17.00;99.90;;;;;;5050264;28;20484;-49
2022/08/20 03:03:44;;;;;;;2.10;1.60;;;17.10;99.90;;;;;;5050437;28;20443;-49
2022/08/20 03:06:13;;;;;;;4.17;1.50;;;17.10;99.90;;;;;;5050362;28;20441;-49
2022/08/20 03:08:40;;;;;;;4.40;1.17;;;17.20;99.90;;;;;;5050318;28;20514;-52
2022/08/20 03:11:07;;;;;;;2.03;1.60;;;17.20;99.90;;;;;;5050114;28;20538;-49
2022/08/20 03:13:36;;;;;;;1.85;1.35;;;17.20;99.90;;;;;;5050215;28;20457;-48
2022/08/20 03:16:05;;;;;;;1.90;1.10;;;17.00;99.90;;;;;;5050239;28;20269;-51
2022/08/20 03:18:38;;;;;;;1.83;1.50;;;16.90;99.90;;;;;;5050195;28;20449;-48
2022/08/20 03:21:07;;;;;;;2.03;1.30;;;16.90;99.90;;;;;;5049704;28;20543;-49
2022/08/20 03:23:35;;;;;;;2.60;1.43;;;17.20;99.90;;;;;;5050292;28;20515;-49
2022/08/20 03:26:04;;;;;;;1.40;1.13;;;17.20;99.90;;;;;;5050030;28;20818;-51
2022/08/20 03:28:31;;;;;;;3.70;1.50;;;17.20;99.90;;;;;;5050179;28;20453;-49
2022/08/20 03:30:58;;;;;;;1.73;1.40;;;17.20;99.90;;;;;;5049707;28;20461;-50
2022/08/20 03:33:26;;;;;;;2.25;1.35;;;17.20;99.90;;;;;;5050013;28;20877;-49
2022/08/20 03:35:55;;;;;;;2.90;1.40;;;17.20;99.90;;;;;;5050353;28;20202;-50
2022/08/20 03:38:23;;;;;;;3.15;1.65;;;17.00;99.90;;;;;;5049762;28;20490;-49
2022/08/20 03:40:51;;;;;;;1.55;0.90;;;17.20;99.90;;;;;;5049690;28;20234;-50
2022/08/20 03:43:18;;;;;;;1.70;1.30;;;17.00;99.90;;;;;;5049839;28;20198;-49
2022/08/20 03:45:46;;;;;;;4.03;1.10;;;16.80;99.90;;;;;;5049883;28;20445;-49
2022/08/20 03:48:16;;;;;;;2.60;1.10;;;16.70;99.90;;;;;;5049706;28;20492;-49
2022/08/20 03:50:44;;;;;;;2.30;1.20;;;16.90;99.90;;;;;;5049268;28;20250;-51
2022/08/20 03:53:14;;;;;;;1.57;1.07;;;17.00;99.90;;;;;;5049714;28;20442;-49
2022/08/20 03:55:43;;;;;;;1.80;1.10;;;16.90;99.90;;;;;;5049859;28;20461;-49
2022/08/20 03:58:10;;;;;;;1.50;1.20;;;16.90;99.90;;;;;;5049618;28;20449;-49
2022/08/20 04:00:41;;;;;;;1.80;1.20;;;16.80;99.90;;;;;;5049355;28;20501;-48
2022/08/20 04:03:08;;;;;;;1.60;1.17;;;16.80;99.90;;;;;;5049589;28;20433;-50
2022/08/20 04:05:39;;;;;;;1.57;1.00;;;16.90;99.90;;;;;;5049630;28;20449;-49
2022/08/20 04:08:08;;;;;;;4.93;1.08;;;16.90;99.90;;;;;;5049815;28;20474;-49
2022/08/20 04:10:36;;;;;;;1.90;1.37;;;16.70;99.90;;;;;;5050466;28;20284;-49
2022/08/20 04:13:04;;;;;;;4.80;1.10;;;16.80;99.90;;;;;;5049657;28;20444;-49
2022/08/20 04:15:32;;;;;;;1.73;1.20;;;16.60;99.90;;;;;;5049554;28;20461;-49
2022/08/20 04:17:59;;;;;;;3.47;1.57;;;16.40;99.90;;;;;;5049335;28;20209;-49
2022/08/20 04:20:26;;;;;;;2.03;1.37;;;16.50;99.90;;;;;;5049323;28;20469;-48
2022/08/20 04:22:55;;;;;;;2.53;1.50;;;16.50;99.90;;;;;;5049143;28;20483;-49
2022/08/20 04:25:22;;;;;;;3.83;2.10;;;16.80;99.90;;;;;;5049350;28;20942;-49
2022/08/20 04:27:51;;;;;;;2.57;1.60;;;16.90;99.90;;;;;;5049008;28;20449;-49
2022/08/20 04:30:21;;;;;;;2.20;1.50;;;16.80;99.90;;;;;;5049278;28;20442;-49
2022/08/20 04:32:48;;;;;;;2.60;2.40;;;16.80;99.90;;;;;;5049305;28;20533;-50
2022/08/20 04:35:17;;;;;;;2.17;1.90;;;16.70;99.90;;;;;;5049479;28;20488;-49
2022/08/20 04:37:46;;;;;;;3.53;1.87;;;16.90;99.90;;;;;;5049370;28;20449;-49
2022/08/20 04:43:04;;;;;;;1.70;1.40;;;16.90;99.90;;;;;;5049276;28;20484;-49
2022/08/20 04:45:32;;;;;;;2.60;1.83;;;16.90;99.90;;;;;;5049677;28;20477;-49
2022/08/20 04:48:04;;;;;;;1.80;1.37;;;16.90;99.90;;;;;;5049224;28;20449;-50
2022/08/20 04:50:34;;;;;;;1.93;1.40;;;16.90;99.90;;;;;;5048896;28;20970;-49
2022/08/20 04:53:02;;;;;;;3.57;2.03;;;17.00;99.90;;;;;;5049364;28;20453;-49
2022/08/20 04:55:29;;;;;;;2.10;1.50;;;17.10;99.90;;;;;;5049407;28;20449;-51
2022/08/20 04:57:58;;;;;;;1.83;1.52;;;17.20;99.90;;;;;;5049357;28;20251;-48
2022/08/20 05:00:26;;;;;;;3.87;1.80;;;17.20;99.90;;;;;;5048779;28;20762;-48
2022/08/20 05:02:53;;;;;;;2.50;2.10;;;17.10;99.90;;;;;;5048973;28;20484;-48
2022/08/20 05:05:21;;;;;;;3.00;1.97;;;17.10;99.90;;;;;;5049479;28;20203;-48
2022/08/20 05:07:48;;;;;;;3.15;1.80;;;17.10;99.90;;;;;;5052572;28;20968;-48
2022/08/20 05:10:18;;;;;;;2.37;1.83;;;16.90;99.90;;;;;;5052430;28;20202;-48
2022/08/20 05:12:46;;;;;;;4.17;1.97;;;16.70;99.90;;;;;;5052517;28;20438;-48
2022/08/20 05:15:13;;;;;;;2.20;1.70;;;16.70;99.90;;;;;;5052585;28;20449;-48
2022/08/20 05:17:43;;;;;;;2.37;1.80;;;16.90;99.90;;;;;;5052423;28;20965;-48
2022/08/20 05:20:15;;;;;;;2.10;1.80;;;16.90;99.90;;;;;;5052342;28;20947;-48
2022/08/20 05:22:43;;;;;;;2.30;1.60;;;16.80;99.90;;;;;;5052182;28;20477;-48
2022/08/20 05:25:11;;;;;;;2.37;1.60;;;16.50;99.90;;;;;;5052354;28;20449;-49
2022/08/20 05:27:38;;;;;;;2.33;1.70;;;16.40;99.90;;;;;;5052067;28;20452;-48
2022/08/20 05:30:08;;;;;;;2.80;2.00;;;16.60;99.90;;;;;;5052263;28;20452;-47
2022/08/20 05:32:36;;;;;;;2.40;1.60;;;16.60;99.90;;;;;;5052378;28;20437;-49
2022/08/20 05:35:07;;;;;;;4.10;1.70;;;16.80;99.90;;;;;;5052512;28;20253;-48
2022/08/20 05:37:35;;;;;;;3.00;1.42;;;16.90;99.90;;;;;;5052211;28;20480;-47
2022/08/20 05:40:02;;;;;;;3.70;2.10;;;16.70;99.90;;;;;;5051825;28;20203;-49
2022/08/20 05:42:29;;;;;;;3.13;2.30;;;16.60;99.90;;;;;;5051884;28;20493;-47
2022/08/20 05:44:56;;;;;;;15.40;3.40;;;16.50;99.90;;;;;;5052190;28;20532;-48
2022/08/20 05:47:26;;;;;;;2.27;1.80;;;16.60;99.90;;;;;;5052141;28;20441;-47
2022/08/20 05:49:54;;;;;;;3.20;2.10;;;16.50;99.90;;;;;;5051793;28;20445;-48
2022/08/20 05:52:22;;;;;;;2.50;2.00;;;16.70;99.90;;;;;;5051744;28;20542;-48
2022/08/20 05:54:49;;;;;;;3.43;2.10;;;16.70;99.90;;;;;;5051633;28;20978;-48
2022/08/20 05:57:18;;;;;;;3.27;2.30;;;16.80;99.90;;;;;;5051972;28;20528;-48
2022/08/20 05:59:45;;;;;;;3.08;1.90;;;16.90;99.90;;;;;;5051448;28;20477;-48
2022/08/20 06:04:54;;;;;;;2.40;2.10;;;17.00;99.90;;;;;;5051271;28;20429;-48
2022/08/20 06:07:22;;;;;;;3.60;2.43;;;16.90;99.90;;;;;;5051261;28;20450;-47
2022/08/20 06:09:50;;;;;;;2.50;2.17;;;16.80;99.90;;;;;;5051594;28;20771;-48
2022/08/20 06:12:17;;;;;;;2.85;2.45;;;16.80;99.90;;;;;;5051268;28;20465;-48
2022/08/20 06:14:46;;;;;;;4.80;2.70;;;16.90;99.90;;;;;;5051529;28;20230;-49
2022/08/20 06:17:15;;;;;;;4.60;2.23;;;16.90;99.90;;;;;;5051473;28;20455;-48
2022/08/20 06:19:43;;;;;;;2.40;2.10;;;16.90;99.90;;;;;;5051136;28;20445;-49
2022/08/20 06:22:10;;;;;;;2.90;1.93;;;16.90;99.90;;;;;;5050928;28;20526;-48
2022/08/20 06:24:38;;;;;;;3.40;2.80;;;17.00;99.90;;;;;;5051393;28;20465;-48
2022/08/20 06:27:06;;;;;;;3.27;2.10;;;16.70;99.90;;;;;;5050876;28;20930;-48
2022/08/20 06:29:33;;;;;;;2.97;2.60;;;16.80;99.90;;;;;;5050991;28;20442;-48
2022/08/20 06:32:01;;;;;;;2.78;2.50;;;16.80;99.90;;;;;;5050873;28;20462;-48
2022/08/20 06:34:28;;;;;;;2.20;2.00;;;16.80;99.90;;;;;;5051284;28;20298;-47
2022/08/20 06:36:56;;;;;;;4.13;1.70;;;16.90;99.90;;;;;;5051144;28;20482;-48
2022/08/20 06:39:24;;;;;;;3.53;2.53;;;16.90;99.90;;;;;;5050873;28;20449;-48
2022/08/20 06:41:54;;;;;;;2.83;2.23;;;16.90;99.90;;;;;;5050678;28;20485;-48
2022/08/20 06:44:21;;;;;;;2.83;2.10;;;16.90;99.90;;;;;;5050989;28;20503;-48
2022/08/20 06:46:48;;;;;;;3.10;2.00;;;16.90;99.90;;;;;;5050963;28;20446;-49
2022/08/20 06:49:15;;;;;;;2.30;2.10;;;17.00;99.90;;;;;;5050799;28;20445;-47
2022/08/20 06:51:42;;;;;;;3.37;2.27;;;17.20;99.90;;;;;;5050775;28;20473;-48
2022/08/20 06:54:09;;;;;;;2.57;2.10;;;17.10;99.90;;;;;;5050789;28;20449;-48
2022/08/20 06:56:36;;;;;;;3.37;2.13;;;16.80;99.90;;;;;;5050673;28;20933;-49
2022/08/20 06:59:04;;;;;;;2.33;2.03;;;16.80;99.90;;;;;;5050202;28;20451;-48
2022/08/20 07:01:31;;;;;;;2.43;2.10;;;16.70;99.90;;;;;;5050650;28;20461;-48
2022/08/20 07:03:59;;;;;;;2.60;2.40;;;16.70;99.90;;;;;;5050534;28;20514;-48
2022/08/20 07:06:27;;;;;;;3.00;2.63;;;16.90;99.90;;;;;;5050356;28;20452;-48
2022/08/20 07:08:54;;;;;;;2.80;1.93;;;16.70;99.90;;;;;;5050248;28;20518;-48
2022/08/20 07:11:22;;;;;;;4.33;2.67;;;16.60;99.90;;;;;;5050103;28;20496;-50
2022/08/20 07:13:49;;;;;;;2.70;2.50;;;16.70;99.90;;;;;;5050263;28;20857;-48
2022/08/20 07:16:17;;;;;;;4.63;2.20;;;16.90;99.90;;;;;;5050469;28;20499;-48
2022/08/20 07:18:44;;;;;;;3.42;2.35;;;17.00;99.90;;;;;;5050087;28;20480;-48
2022/08/20 07:21:11;;;;;;;2.27;1.97;;;16.80;99.90;;;;;;5049973;28;20218;-49
2022/08/20 07:23:40;;;;;;;3.03;2.10;;;16.90;99.90;;;;;;5050213;28;20556;-49
2022/08/20 07:26:07;;;;;;;3.07;2.23;;;17.00;99.90;;;;;;5049744;28;20450;-48
2022/08/20 07:28:34;;;;;;;2.70;1.90;;;17.10;99.90;;;;;;5049785;28;20504;-49
2022/08/20 07:33:47;;;;;;;2.60;2.40;;;17.10;99.90;;;;;;5050014;28;20440;-48
2022/08/20 07:36:14;;;;;;;2.95;2.40;;;17.20;99.90;;;;;;5049852;28;20548;-48
2022/08/20 07:38:44;;;;;;;2.23;2.00;;;17.30;99.90;;;;;;5049863;28;20294;-48
2022/08/20 07:41:13;;;;;;;3.47;2.20;;;17.30;99.90;;;;;;5049934;28;20566;-49
2022/08/20 07:43:44;;;;;;;2.40;2.03;;;17.30;99.90;;;;;;5049818;28;20484;-48
2022/08/20 07:46:12;;;;;;;2.97;2.40;;;17.30;99.90;;;;;;5049777;28;20879;-48
2022/08/20 07:48:41;;;;;;;3.07;2.77;;;17.20;99.90;;;;;;5050070;28;20453;-48
2022/08/20 07:51:10;;;;;;;2.90;2.10;;;17.20;99.90;;;;;;5049719;28;20754;-48
2022/08/20 07:53:39;;;;;;;2.80;2.17;;;17.30;99.90;;;;;;5049749;28;20469;-49
2022/08/20 07:56:09;;;;;;;2.80;2.43;;;17.40;99.90;;;;;;5049660;28;20523;-49
2022/08/20 07:58:37;;;;;;;2.83;2.57;;;17.40;99.90;;;;;;5049623;28;20810;-48
2022/08/20 08:01:05;;;;;;;4.10;2.23;;;17.50;99.90;;;;;;5049448;28;20812;-49
2022/08/20 08:03:32;;;;;;;3.07;2.47;;;17.50;99.90;;;;;;5049628;28;20915;-48
2022/08/20 08:06:00;;;;;;;3.40;2.80;;;17.30;99.90;;;;;;5049333;28;20449;-49
2022/08/20 08:08:29;;;;;;;2.67;2.10;;;17.40;99.90;;;;;;5049971;28;20532;-49
2022/08/20 08:11:00;;;;;;;3.13;2.80;;;17.40;99.90;;;;;;5049190;28;20990;-49
2022/08/20 08:13:28;;;;;;;2.83;2.47;;;17.40;99.90;;;;;;5049578;28;20515;-48
2022/08/20 08:16:00;;;;;;;2.60;1.93;;;17.50;99.90;;;;;;5049283;28;20534;-50
2022/08/20 08:18:31;;;;;;;3.10;2.30;;;17.10;99.90;;;;;;5049485;28;21023;-47
2022/08/20 08:20:58;;;;;;;4.07;2.20;;;17.00;99.90;;;;;;5049405;28;20461;-48
2022/08/20 08:23:26;;;;;;;4.13;2.60;;;17.10;99.90;;;;;;5049151;28;20473;-49
2022/08/20 08:25:55;;;;;;;3.27;2.50;;;17.20;99.90;;;;;;5049181;28;20507;-49
2022/08/20 08:28:22;;;;;;;3.57;3.23;;;17.00;99.90;;;;;;5049392;28;20445;-48
2022/08/20 08:30:49;;;;;;;3.70;3.00;;;17.00;99.90;;;;;;5049338;28;20885;-49
2022/08/20 08:33:31;;;;;;;2.87;2.10;;;17.20;99.90;;;;;;5049309;28;20437;-50
2022/08/20 08:36:02;;;;;;;10.03;3.67;;;17.30;99.90;;;;;;5049325;28;20481;-48
2022/08/20 08:38:30;;;;;;;8.53;3.20;;;17.40;99.90;;;;;;5049530;28;20451;-48
2022/08/20 08:41:03;;;;;;;4.33;2.57;;;17.20;99.90;;;;;;5050841;28;20453;-48
2022/08/20 08:43:31;;;;;;;3.07;2.60;;;17.30;99.90;;;;;;5053203;28;20484;-48
2022/08/20 08:46:01;;;;;;;10.13;6.63;;;17.30;99.90;;;;;;5053121;28;20456;-49
2022/08/20 08:48:34;;;;;;;3.80;2.80;;;17.20;99.90;;;;;;5053002;28;20579;-49
2022/08/20 08:51:06;;;;;;;2.97;2.63;;;17.30;99.90;;;;;;5052971;28;20511;-49
2022/08/20 08:53:40;;;;;;;3.20;2.40;;;17.40;99.90;;;;;;5053244;28;20524;-49
2022/08/20 08:56:09;;;;;;;3.33;3.03;;;17.50;99.90;;;;;;5052948;28;20444;-48
2022/08/20 08:58:37;;;;;;;3.13;2.83;;;17.70;99.90;;;;;;5052767;28;20449;-49
2022/08/20 09:01:11;;;;;;;6.10;3.03;;;17.60;99.90;;;;;;5052459;28;20499;-48
2022/08/20 09:03:42;;;;;;;3.55;3.25;;;17.50;99.90;;;;;;5052676;28;20575;-48
2022/08/20 09:06:14;;;;;;;4.10;2.60;;;17.60;99.90;;;;;;5052446;28;20684;-48
2022/08/20 09:08:46;;;;;;;5.90;3.10;;;17.70;99.90;;;;;;5052561;28;20457;-47
2022/08/20 09:11:15;;;;;;;14.50;11.60;;;17.70;99.90;;;;;;5052412;28;20509;-48
2022/08/20 09:13:44;;;;;;;5.70;4.97;;;17.70;99.90;;;;;;5052452;28;20478;-49
2022/08/20 09:16:11;;;;;;;4.47;3.10;;;17.80;99.90;;;;;;5052349;28;20926;-48
2022/08/20 09:18:39;;;;;;;3.10;2.60;;;17.80;99.90;;;;;;5052581;28;20440;-48
2022/08/20 09:21:07;;;;;;;3.00;2.40;;;17.90;99.90;;;;;;5052179;28;20469;-50
2022/08/20 09:23:34;;;;;;;5.53;2.40;;;17.90;99.90;;;;;;5052204;28;20477;-49
2022/08/20 09:26:01;;;;;;;4.03;2.80;;;18.00;99.90;;;;;;5051925;28;20203;-50
2022/08/20 09:28:29;;;;;;;4.00;2.53;;;18.00;99.90;;;;;;5052356;28;20503;-50
2022/08/20 09:30:57;;;;;;;3.33;2.20;;;18.00;99.90;;;;;;5052093;28;20970;-49
2022/08/20 09:33:24;;;;;;;3.80;2.40;;;17.90;99.90;;;;;;5052137;28;20887;-49
2022/08/20 09:35:51;;;;;;;3.93;2.80;;;17.80;99.90;;;;;;5052071;28;20495;-48
2022/08/20 09:38:18;;;;;;;2.70;2.50;;;17.90;99.90;;;;;;5051932;28;20448;-48
2022/08/20 09:40:45;;;;;;;5.90;5.50;;;17.80;99.90;;;;;;5052081;28;20462;-48
2022/08/20 09:43:12;;;;;;;9.03;8.43;;;17.80;99.90;;;;;;5052029;28;20486;-48
2022/08/20 09:45:41;;;;;;;8.03;7.40;;;17.90;99.90;;;;;;5051944;28;20499;-49
2022/08/20 09:48:08;;;;;;;4.20;3.90;;;17.80;99.90;;;;;;5051865;28;20540;-49
2022/08/20 09:50:36;;;;;;;4.17;3.77;;;17.90;99.90;;;;;;5051507;28;20465;-48
2022/08/20 09:53:05;;;;;;;3.20;2.90;;;18.00;99.90;;;;;;5051623;28;20540;-48
2022/08/20 09:55:35;;;;;;;3.27;2.97;;;18.10;99.90;;;;;;5051935;28;20445;-49
2022/08/20 09:58:08;;;;;;;6.07;3.10;;;17.90;99.90;;;;;;5051729;28;20442;-48
2022/08/20 10:00:36;;;;;;;5.65;3.08;;;18.00;99.90;;;;;;5051723;28;20469;-48
2022/08/20 10:03:04;;;;;;;8.60;4.10;;;18.00;99.90;;;;;;5051441;28;20284;-49
2022/08/20 10:05:31;;;;;;;3.37;3.03;;;18.10;99.90;;;;;;5051137;28;20860;-50
2022/08/20 10:07:58;;;;;;;3.20;2.93;;;18.20;99.90;;;;;;5051714;28;21000;-48
2022/08/20 10:10:31;;;;;;;3.40;3.10;;;18.10;99.90;;;;;;5051793;28;20516;-53
2022/08/20 10:12:58;;;;;;;3.60;2.90;;;18.10;99.90;;;;;;5051586;28;20524;-48
2022/08/20 10:15:25;;;;;;;3.70;2.60;;;18.10;99.90;;;;;;5051311;28;20795;-49
2022/08/20 10:17:52;;;;;;;5.77;3.40;;;17.80;99.90;;;;;;5051324;28;20929;-48
2022/08/20 10:20:21;;;;;;;3.53;2.77;;;17.90;99.90;;;;;;5050948;28;20449;-48
2022/08/20 10:22:48;;;;;;;7.10;3.87;;;17.60;99.90;;;;;;5051087;28;20437;-48
2022/08/20 10:25:16;;;;;;;4.33;2.20;;;17.80;99.90;;;;;;5051679;28;20800;-48
2022/08/20 10:27:43;;;;;;;4.70;3.73;;;17.80;99.90;;;;;;5050664;28;20477;-48
2022/08/20 10:30:12;;;;;;;3.90;3.60;;;17.80;99.90;;;;;;5050770;28;20502;-50
2022/08/20 10:32:39;;;;;;;4.40;3.90;;;17.80;99.90;;;;;;5051166;28;20445;-48
2022/08/20 10:35:06;;;;;;;5.20;3.47;;;18.00;99.90;;;;;;5050869;28;20446;-50
2022/08/20 10:37:35;;;;;;;8.33;6.53;;;17.90;99.90;;;;;;5050826;28;20446;-48
2022/08/20 10:40:02;;;;;;;5.83;5.23;;;18.00;99.90;;;;;;5050697;28;20450;-49
2022/08/20 10:42:29;;;;;;;3.90;3.40;;;17.80;99.90;;;;;;5051143;28;20922;-48
2022/08/20 10:44:56;;;;;;;5.57;3.80;;;17.70;99.90;;;;;;5050949;28;20527;-49
2022/08/20 10:47:27;;;;;;;3.93;3.53;;;17.80;99.90;;;;;;5050711;28;20946;-49
2022/08/20 10:49:57;;;;;;;19.60;12.50;;;18.00;99.90;;;;;;5050894;28;20437;-48
2022/08/20 10:52:24;;;;;;;16.70;9.93;;;18.10;99.90;;;;;;5050629;28;20523;-48
2022/08/20 10:54:53;;;;;;;9.37;5.20;;;17.80;99.90;;;;;;5050436;28;20704;-51
2022/08/20 10:57:22;;;;;;;10.60;4.43;;;17.80;99.90;;;;;;5050965;28;20445;-48
2022/08/20 10:59:51;;;;;;;9.70;5.43;;;17.60;99.90;;;;;;5050487;28;20445;-48
2022/08/20 11:02:18;;;;;;;6.93;4.10;;;17.50;99.90;;;;;;5050267;28;20469;-52
2022/08/20 11:04:46;;;;;;;36.93;7.60;;;17.40;99.90;;;;;;5049772;28;21021;-48
2022/08/20 11:07:17;;;;;;;27.53;8.80;;;17.60;99.90;;;;;;5050673;28;20445;-49
2022/08/20 11:09:45;;;;;;;25.05;7.53;;;17.40;99.90;;;;;;5050140;28;20452;-48
2022/08/20 11:12:14;;;;;;;26.00;7.30;;;17.40;99.90;;;;;;5050057;28;20296;-49
2022/08/20 11:14:41;;;;;;;17.87;6.67;;;17.50;99.90;;;;;;5050446;28;20494;-48
2022/08/20 11:17:09;;;;;;;4.75;4.35;;;17.70;99.90;;;;;;5050329;28;20506;-48
2022/08/20 11:19:40;;;;;;;9.73;4.80;;;17.60;99.90;;;;;;5050081;28;20202;-49
2022/08/20 11:22:08;;;;;;;4.43;4.03;;;17.80;99.90;;;;;;5049897;28;20465;-49
2022/08/20 11:24:35;;;;;;;5.00;4.50;;;17.80;99.90;;;;;;5050128;28;20481;-48
2022/08/20 11:27:02;;;;;;;4.90;4.50;;;17.80;99.90;;;;;;5049746;28;20441;-49
2022/08/20 11:29:31;;;;;;;7.05;4.72;;;17.90;99.90;;;;;;5049780;28;20441;-50
2022/08/20 11:31:58;;;;;;;5.97;4.65;;;18.00;99.90;;;;;;5049814;28;20223;-48
2022/08/20 11:34:25;;;;;;;4.77;4.00;;;18.00;99.90;;;;;;5049969;28;20676;-48
2022/08/20 11:36:53;;;;;;;4.13;3.50;;;17.90;99.90;;;;;;5050424;28;20445;-50
2022/08/20 11:39:20;;;;;;;8.70;4.70;;;17.90;99.90;;;;;;5049662;28;20835;-48
2022/08/20 11:41:47;;;;;;;4.37;3.97;;;17.90;99.90;;;;;;5049912;28;20465;-49
2022/08/20 11:44:14;;;;;;;3.87;3.57;;;17.90;99.90;;;;;;5049811;28;20476;-48
2022/08/20 11:46:42;;;;;;;4.50;4.10;;;18.00;99.90;;;;;;5049702;28;20509;-50
2022/08/20 11:49:09;;;;;;;4.60;4.10;;;18.10;99.90;;;;;;5049807;28;20444;-49
2022/08/20 11:51:37;;;;;;;8.43;4.13;;;18.10;99.90;;;;;;5049760;28;20223;-49
2022/08/20 11:54:04;;;;;;;5.20;3.35;;;18.00;99.90;;;;;;5049649;28;20499;-48
2022/08/20 11:56:31;;;;;;;2.50;2.30;;;17.80;99.90;;;;;;5049690;28;20200;-51
2022/08/20 11:58:59;;;;;;;4.70;3.70;;;17.70;99.90;;;;;;5049411;28;20209;-49
2022/08/20 12:01:26;;;;;;;4.47;3.00;;;17.80;99.90;;;;;;5049509;28;20980;-48
2022/08/20 12:03:54;;;;;;;3.67;3.10;;;17.90;99.90;;;;;;5049763;28;20473;-49
2022/08/20 12:06:21;;;;;;;4.17;3.77;;;18.00;99.90;;;;;;5049406;28;20449;-49
2022/08/20 12:08:48;;;;;;;12.23;4.27;;;17.90;99.90;;;;;;5049467;28;20449;-48
2022/08/20 12:11:15;;;;;;;16.03;4.80;;;17.80;99.90;;;;;;5049226;28;20989;-48
2022/08/20 12:13:42;;;;;;;10.33;4.27;;;17.70;99.90;;;;;;5049419;28;20444;-49
2022/08/20 12:16:09;;;;;;;9.70;3.60;;;17.90;99.90;;;;;;5053431;28;20448;-48
2022/08/20 12:18:36;;;;;;;4.30;3.20;;;18.00;99.90;;;;;;5053696;28;20453;-51
2022/08/20 12:21:05;;;;;;;6.73;3.87;;;18.10;99.90;;;;;;5053428;28;20469;-49
2022/08/20 12:23:32;;;;;;;5.50;3.70;;;18.20;99.90;;;;;;5053220;28;20987;-49
2022/08/20 12:26:01;;;;;;;3.90;3.30;;;18.30;99.90;;;;;;5052757;28;20460;-50
2022/08/20 12:28:29;;;;;;;4.33;3.53;;;18.30;99.90;;;;;;5053497;28;20910;-49
2022/08/20 12:30:56;;;;;;;5.80;3.97;;;18.30;99.90;;;;;;5052406;28;20463;-48
2022/08/20 12:33:23;;;;;;;4.50;4.10;;;18.40;99.90;;;;;;5053059;28;20448;-52
2022/08/20 12:35:51;;;;;;;4.37;3.97;;;18.30;99.90;;;;;;5053329;28;20625;-48
2022/08/20 12:38:20;;;;;;;4.35;3.95;;;18.30;99.90;;;;;;5053083;28;20540;-50
2022/08/20 12:40:47;;;;;;;5.30;4.40;;;18.30;99.90;;;;;;5053048;28;20273;-49
2022/08/20 12:43:14;;;;;;;5.37;4.87;;;18.30;99.90;;;;;;5052922;28;20248;-51
2022/08/20 12:45:41;;;;;;;12.33;6.30;;;18.40;99.90;;;;;;5052883;28;20509;-50
2022/08/20 12:48:10;;;;;;;35.83;32.00;;;18.50;99.90;;;;;;5053129;28;20616;-48
2022/08/20 12:50:39;;;;;;;13.10;10.33;;;18.50;99.90;;;;;;5052576;28;20473;-50
2022/08/20 12:53:07;;;;;;;15.70;11.80;;;18.50;99.90;;;;;;5053195;28;20495;-49
2022/08/20 12:55:35;;;;;;;5.90;5.30;;;18.50;99.90;;;;;;5052935;28;20943;-48
2022/08/20 12:58:04;;;;;;;7.00;5.60;;;18.50;99.90;;;;;;5052815;28;20446;-48
2022/08/20 13:00:33;;;;;;;7.00;5.23;;;18.50;99.90;;;;;;5052617;28;20839;-49